Terminal Aerodrome Forecast
Issued by NWS Wakefield, VA

Home | Current Version | Previous Version | Text Only | Print | Product List | Glossary On
Versions: 1 2 3 4 5 6 7 8 9 10 11 12 13 14 15
043
FTUS41 KAKQ 240522
TAFORF
TAF
KORF 240522Z 2406/2506 21018G27KT P6SM SCT150
     FM241200 23016G24KT P6SM BKN045
     FM241500 25013G20KT P6SM SCT030
     FM241900 25009KT P6SM SCT050
     FM242300 24008KT P6SM BKN070=

USA.gov is the U.S. government's official web portal to all federal, state and local government web resources and services.